Terminal Aerodrome Forecast
Issued by NWS

Home | Current Version | Previous Version | Text Only | Print | Product List | Glossary On
Versions: 1 2 3 4 5 6 7 8 9 10 11 12 13 14 15 16 17 18 19 20 21 22 23 24
000
FTUS45 KGJT 182339
TAFEGE
TAF
KEGE 182339Z 1900/1924 24009KT P6SM FEW110
     FM190200 12003KT P6SM SKC
     FM190900 00000KT P6SM SKC
     FM191900 24009KT P6SM SCT110
      AMD LTD TO CLD VIS AND WIND 1901/1913=

USA.gov is the U.S. government's official web portal to all federal, state and local government web resources and services.